Time;durP1;ratioP1;P1;durP2;ratioP2;P2;SDS_P1;SDS_P2;PMS_P1;PMS_P2;Temp;Humidity;BMP_temperature;BMP_pressure;BME280_temperature;BME280_humidity;BME280_pressure;Samples;Min_cycle;Max_cycle;Signal;HPM_P1;HPM_P2
2022/10/12 00:01:02;;;;;;;;;;;;;;;11.40;77.41;98770.47;5063728;28;19981;-59
2022/10/12 00:03:31;;;;;;;;;;;;;;;11.40;77.50;98757.72;5069206;28;19929;-58
2022/10/12 00:06:03;;;;;;;;;;;;;;;11.38;77.55;98754.47;5069560;28;19928;-59
2022/10/12 00:08:30;;;;;;;;;;;;;;;11.43;77.58;98753.59;5071721;28;19931;-59
2022/10/12 00:13:51;;;;;;;;;;;;;;;11.38;77.60;98753.66;5067556;28;20015;-59
2022/10/12 00:16:19;;;;;;;;;;;;;;;11.45;77.26;98759.53;5057706;28;20036;-58
2022/10/12 00:18:51;;;;;;;;;;;;;;;11.30;77.83;98752.44;5050218;28;20408;-59
2022/10/12 00:21:19;;;;;;;;;;;;;;;11.36;77.75;98745.81;5051083;28;19925;-58
2022/10/12 00:24:11;;;;;;;;;;;;;;;11.41;77.72;98753.09;5051424;28;20357;-59
2022/10/12 00:26:38;;;;;;;;;;;;;;;11.26;77.98;98740.50;5050534;28;19924;-59
2022/10/12 00:29:06;;;;;;;;;;;;;;;11.34;77.92;98744.47;5049857;28;19931;-59
2022/10/12 00:31:34;;;;;;;;;;;;;;;11.39;77.78;98747.09;5038694;28;19925;-59
2022/10/12 00:34:05;;;;;;;;;;;;;;;11.33;77.87;98751.00;5051531;28;19960;-59
2022/10/12 00:36:34;;;;;;;;;;;;;;;11.31;77.79;98751.31;5048962;28;19931;-59
2022/10/12 00:39:03;;;;;;;;;;;;;;;11.30;77.93;98746.19;5044830;28;19968;-59
2022/10/12 00:41:32;;;;;;;;;;;;;;;11.23;77.96;98754.69;5050931;28;20366;-58
2022/10/12 00:44:00;;;;;;;;;;;;;;;11.10;78.66;98745.38;5043512;28;19933;-59
2022/10/12 00:46:29;;;;;;;;;;;;;;;11.11;78.74;98746.19;5046481;28;19925;-59
2022/10/12 00:48:57;;;;;;;;;;;;;;;11.19;78.09;98746.34;5047354;28;19924;-59
2022/10/12 00:51:26;;;;;;;;;;;;;;;11.24;78.35;98745.44;5068609;28;19929;-58
2022/10/12 00:53:55;;;;;;;;;;;;;;;11.30;77.69;98749.72;5069662;28;19935;-58
2022/10/12 00:56:24;;;;;;;;;;;;;;;11.32;77.37;98747.50;5070599;28;19924;-58
2022/10/12 00:58:53;;;;;;;;;;;;;;;11.18;77.83;98747.41;5070846;28;19924;-59
2022/10/12 01:01:22;;;;;;;;;;;;;;;11.21;77.51;98746.84;5065296;28;19931;-59
2022/10/12 01:03:50;;;;;;;;;;;;;;;11.09;78.23;98742.94;5070786;28;19978;-59
2022/10/12 01:06:18;;;;;;;;;;;;;;;11.16;77.96;98743.38;5050681;28;20402;-58
2022/10/12 01:08:47;;;;;;;;;;;;;;;11.08;78.29;98742.16;5070288;28;19947;-59
2022/10/12 01:11:14;;;;;;;;;;;;;;;11.12;77.79;98747.78;5071055;28;19956;-59
2022/10/12 01:13:43;;;;;;;;;;;;;;;11.18;77.82;98746.59;5069720;28;19928;-59
2022/10/12 01:16:11;;;;;;;;;;;;;;;11.16;77.68;98744.19;5055124;28;19939;-59
2022/10/12 01:18:40;;;;;;;;;;;;;;;10.90;78.76;98741.03;5050111;28;19939;-59
2022/10/12 01:21:10;;;;;;;;;;;;;;;10.93;78.56;98745.88;5050081;28;19925;-59
2022/10/12 01:23:59;;;;;;;;;;;;;;;11.04;78.21;98740.31;5050021;28;19929;-59
2022/10/12 01:26:57;;;;;;;;;;;;;;;11.11;77.94;98740.75;5049000;28;19932;-59
2022/10/12 01:29:30;;;;;;;;;;;;;;;10.98;78.30;98734.94;5050118;28;20027;-59
2022/10/12 01:32:00;;;;;;;;;;;;;;;11.11;78.07;98735.31;5050005;28;19932;-59
2022/10/12 01:34:29;;;;;;;;;;;;;;;10.96;77.91;98741.75;5053565;28;20431;-59
2022/10/12 01:36:58;;;;;;;;;;;;;;;11.01;78.00;98742.50;5068392;28;19960;-59
2022/10/12 01:39:29;;;;;;;;;;;;;;;10.95;78.11;98735.50;5053066;28;19924;-58
2022/10/12 01:41:58;;;;;;;;;;;;;;;10.95;78.07;98732.78;5054000;28;20546;-59
2022/10/12 01:47:23;;;;;;;;;;;;;;;10.93;78.32;98734.19;5043541;28;19979;-59
2022/10/12 01:49:51;;;;;;;;;;;;;;;11.02;78.11;98738.69;5052284;28;19929;-59
2022/10/12 01:52:21;;;;;;;;;;;;;;;11.01;77.71;98730.81;5052396;28;19931;-58
2022/10/12 01:55:07;;;;;;;;;;;;;;;11.06;77.55;98740.81;5053073;28;19975;-59
2022/10/12 01:57:42;;;;;;;;;;;;;;;11.09;77.46;98735.59;5052888;28;20012;-59
2022/10/12 02:00:10;;;;;;;;;;;;;;;11.10;77.20;98733.69;5045080;28;20283;-59
2022/10/12 02:02:44;;;;;;;;;;;;;;;10.92;77.58;98732.56;5069004;28;20011;-59
2022/10/12 02:05:13;;;;;;;;;;;;;;;10.93;77.74;98726.84;5068623;28;19950;-59
2022/10/12 02:07:42;;;;;;;;;;;;;;;10.92;77.43;98730.69;5078015;28;19925;-59
2022/10/12 02:10:13;;;;;;;;;;;;;;;10.97;77.49;98727.88;5073708;28;19928;-58
2022/10/12 02:12:41;;;;;;;;;;;;;;;10.98;77.29;98731.41;5067664;28;19925;-59
2022/10/12 02:15:10;;;;;;;;;;;;;;;10.97;77.06;98733.31;5069590;28;19929;-59
2022/10/12 02:17:39;;;;;;;;;;;;;;;10.95;77.34;98732.78;5056607;28;19986;-59
2022/10/12 02:20:09;;;;;;;;;;;;;;;10.96;77.32;98730.88;5074179;28;19947;-59
2022/10/12 02:22:38;;;;;;;;;;;;;;;10.92;77.50;98730.69;5073195;28;19965;-59
2022/10/12 02:25:09;;;;;;;;;;;;;;;10.88;77.69;98726.94;5074208;28;20370;-59
2022/10/12 02:27:44;;;;;;;;;;;;;;;10.80;77.61;98727.56;5054319;28;19928;-59
2022/10/12 02:30:12;;;;;;;;;;;;;;;10.74;77.93;98721.38;5073825;28;19930;-59
2022/10/12 02:33:05;;;;;;;;;;;;;;;10.73;78.28;98718.97;5066411;28;19928;-59
2022/10/12 02:35:36;;;;;;;;;;;;;;;10.72;78.04;98728.22;5085823;28;20361;-59
2022/10/12 02:38:29;;;;;;;;;;;;;;;10.63;78.34;98719.91;5065827;28;19931;-59
2022/10/12 02:40:57;;;;;;;;;;;;;;;10.62;78.37;98728.38;5068662;28;19932;-59
2022/10/12 02:43:29;;;;;;;;;;;;;;;10.62;78.32;98722.94;5069517;28;20365;-59
2022/10/12 02:45:57;;;;;;;;;;;;;;;10.64;78.34;98724.25;5065850;28;20352;-59
2022/10/12 02:48:25;;;;;;;;;;;;;;;10.61;78.18;98718.59;5069174;28;19939;-59
2022/10/12 02:50:54;;;;;;;;;;;;;;;10.60;78.39;98725.09;5072663;28;19925;-59
2022/10/12 02:53:47;;;;;;;;;;;;;;;10.57;78.28;98720.28;5053697;28;19925;-59
2022/10/12 02:56:16;;;;;;;;;;;;;;;10.53;78.56;98722.75;5086798;28;19956;-59
2022/10/12 02:58:45;;;;;;;;;;;;;;;10.47;78.36;98723.91;5067865;28;20015;-59
2022/10/12 03:01:13;;;;;;;;;;;;;;;10.44;78.91;98725.31;5067493;28;19934;-59
2022/10/12 03:03:41;;;;;;;;;;;;;;;10.48;78.87;98723.63;5071351;28;19928;-59
2022/10/12 03:06:10;;;;;;;;;;;;;;;10.46;78.71;98728.56;5071792;28;19931;-59
2022/10/12 03:08:38;;;;;;;;;;;;;;;10.45;78.63;98718.78;5072022;28;20351;-59
2022/10/12 03:11:11;;;;;;;;;;;;;;;10.46;78.72;98720.41;5088825;28;19932;-59
2022/10/12 03:13:40;;;;;;;;;;;;;;;10.47;78.49;98716.56;5070460;28;19925;-59
2022/10/12 03:16:08;;;;;;;;;;;;;;;10.42;78.63;98711.22;5049806;28;19925;-59
2022/10/12 03:18:37;;;;;;;;;;;;;;;10.38;78.63;98712.88;5052804;28;19929;-59
2022/10/12 03:21:04;;;;;;;;;;;;;;;10.31;79.14;98715.16;5054200;28;19932;-59
2022/10/12 03:23:36;;;;;;;;;;;;;;;10.35;79.03;98715.38;5052218;28;19932;-59
2022/10/12 03:26:07;;;;;;;;;;;;;;;10.36;79.08;98719.72;5052955;28;19925;-59
2022/10/12 03:28:35;;;;;;;;;;;;;;;10.30;78.87;98724.41;5052134;28;20024;-59
2022/10/12 03:31:06;;;;;;;;;;;;;;;10.25;79.00;98724.44;5054188;28;19924;-59
2022/10/12 03:33:34;;;;;;;;;;;;;;;10.17;79.43;98725.03;5066356;28;19925;-59
2022/10/12 03:36:02;;;;;;;;;;;;;;;10.17;79.30;98714.19;5071870;28;19989;-59
2022/10/12 03:38:30;;;;;;;;;;;;;;;10.01;80.17;98710.03;5054369;28;19982;-59
2022/10/12 03:40:59;;;;;;;;;;;;;;;10.09;79.97;98715.63;5071670;28;20289;-59
2022/10/12 03:43:32;;;;;;;;;;;;;;;10.09;79.70;98710.22;5070125;28;19932;-59
2022/10/12 03:46:00;;;;;;;;;;;;;;;10.10;79.66;98714.53;5067845;28;19924;-59
2022/10/12 03:48:28;;;;;;;;;;;;;;;10.05;79.61;98717.31;5063566;28;19971;-58
2022/10/12 03:50:56;;;;;;;;;;;;;;;10.06;79.59;98720.81;5068649;28;19929;-59
2022/10/12 03:53:24;;;;;;;;;;;;;;;10.04;79.52;98717.59;5069979;28;19924;-59
2022/10/12 03:55:51;;;;;;;;;;;;;;;10.06;79.62;98715.41;5070978;28;20340;-59
2022/10/12 03:58:21;;;;;;;;;;;;;;;10.05;79.32;98716.50;5069196;28;19964;-58
2022/10/12 04:00:51;;;;;;;;;;;;;;;10.03;79.54;98713.28;5066928;28;19924;-59
2022/10/12 04:03:21;;;;;;;;;;;;;;;10.01;79.43;98718.16;5070423;28;20434;-58
2022/10/12 04:05:52;;;;;;;;;;;;;;;9.95;79.53;98714.69;5066345;28;19929;-59
2022/10/12 04:08:20;;;;;;;;;;;;;;;9.93;79.73;98712.28;5067348;28;20369;-59
2022/10/12 04:10:49;;;;;;;;;;;;;;;9.90;79.67;98712.84;5069653;28;19934;-59
2022/10/12 04:13:17;;;;;;;;;;;;;;;9.89;79.82;98710.41;5067570;28;20031;-58
2022/10/12 04:15:47;;;;;;;;;;;;;;;9.90;79.71;98718.25;5047061;28;20392;-59
2022/10/12 04:18:15;;;;;;;;;;;;;;;9.88;79.62;98714.22;5067774;28;20823;-59
2022/10/12 04:20:43;;;;;;;;;;;;;;;9.85;79.54;98715.59;5069287;28;19962;-59
2022/10/12 04:23:11;;;;;;;;;;;;;;;9.85;79.59;98720.22;5066365;28;19929;-59
2022/10/12 04:25:40;;;;;;;;;;;;;;;9.78;79.52;98715.13;5070791;28;19986;-59
2022/10/12 04:28:32;;;;;;;;;;;;;;;9.73;79.77;98717.91;5068217;28;19925;-59
2022/10/12 04:31:02;;;;;;;;;;;;;;;9.74;79.62;98722.22;5060120;28;20430;-59
2022/10/12 04:33:55;;;;;;;;;;;;;;;9.71;79.89;98715.47;5044894;28;20425;-59
2022/10/12 04:36:24;;;;;;;;;;;;;;;9.74;80.34;98719.50;5043999;28;20313;-59
2022/10/12 04:38:52;;;;;;;;;;;;;;;9.75;80.08;98721.16;5043646;28;19936;-59
2022/10/12 04:41:27;;;;;;;;;;;;;;;9.70;80.32;98722.00;5044449;28;19928;-58
2022/10/12 04:44:24;;;;;;;;;;;;;;;9.75;80.16;98721.16;5045361;28;19939;-59
2022/10/12 04:47:24;;;;;;;;;;;;;;;9.77;80.25;98718.94;5042436;28;19956;-59
2022/10/12 04:49:52;;;;;;;;;;;;;;;9.77;79.90;98718.94;5065442;28;19935;-59
2022/10/12 04:52:20;;;;;;;;;;;;;;;9.79;79.86;98715.94;5042023;28;19929;-58
2022/10/12 04:54:47;;;;;;;;;;;;;;;9.77;79.80;98718.94;5047343;28;19956;-59
2022/10/12 04:57:15;;;;;;;;;;;;;;;9.73;80.04;98723.31;5051120;28;19925;-58
2022/10/12 04:59:44;;;;;;;;;;;;;;;9.65;80.61;98721.25;5052568;28;19968;-59
2022/10/12 05:02:11;;;;;;;;;;;;;;;9.74;80.26;98721.41;5063005;28;19924;-59
2022/10/12 05:04:40;;;;;;;;;;;;;;;9.75;80.10;98732.00;5065885;28;19939;-59
2022/10/12 05:07:57;;;;;;;;;;;;;;;9.75;80.02;98726.59;5066677;28;20389;-59
2022/10/12 05:10:25;;;;;;;;;;;;;;;9.80;80.03;98731.97;5070453;28;19960;-59
2022/10/12 05:12:53;;;;;;;;;;;;;;;9.78;79.80;98731.41;5071557;28;19933;-59
2022/10/12 05:15:21;;;;;;;;;;;;;;;9.80;79.77;98733.84;5060898;28;19967;-58
2022/10/12 05:17:49;;;;;;;;;;;;;;;9.80;79.91;98736.56;5066159;28;20269;-59
2022/10/12 05:20:42;;;;;;;;;;;;;;;9.76;80.92;98739.03;5068137;28;19928;-59
2022/10/12 05:23:10;;;;;;;;;;;;;;;9.87;80.35;98740.56;5070364;28;19920;-59
2022/10/12 05:25:38;;;;;;;;;;;;;;;9.92;80.13;98737.81;5077149;28;19931;-59
2022/10/12 05:28:06;;;;;;;;;;;;;;;9.96;79.76;98733.44;5072992;28;19920;-59
2022/10/12 05:30:34;;;;;;;;;;;;;;;9.92;79.77;98732.38;5061565;28;20022;-59
2022/10/12 05:33:05;;;;;;;;;;;;;;;9.97;79.55;98728.81;5067097;28;20414;-59
2022/10/12 05:35:33;;;;;;;;;;;;;;;10.02;79.48;98736.09;5068590;28;20289;-58
2022/10/12 05:38:02;;;;;;;;;;;;;;;10.06;79.81;98739.84;5069588;28;19920;-59
2022/10/12 05:40:30;;;;;;;;;;;;;;;10.07;79.53;98741.47;5069735;28;19921;-59
2022/10/12 05:42:59;;;;;;;;;;;;;;;10.10;79.12;98738.97;5066429;28;20773;-59
2022/10/12 05:45:26;;;;;;;;;;;;;;;10.12;79.05;98744.09;5053063;28;19925;-59
2022/10/12 05:47:54;;;;;;;;;;;;;;;10.12;79.10;98736.78;5066614;28;20018;-59
2022/10/12 05:50:24;;;;;;;;;;;;;;;10.18;79.12;98742.97;5067154;28;19936;-59
2022/10/12 05:52:52;;;;;;;;;;;;;;;10.21;79.02;98747.81;5083900;28;20360;-59
2022/10/12 05:55:52;;;;;;;;;;;;;;;10.22;78.70;98749.44;5061673;28;19956;-59
2022/10/12 05:58:20;;;;;;;;;;;;;;;10.11;79.61;98753.34;5066259;28;19932;-59
2022/10/12 06:00:48;;;;;;;;;;;;;;;10.18;78.92;98756.56;5060999;28;19940;-59
2022/10/12 06:03:16;;;;;;;;;;;;;;;10.25;78.22;98759.75;5052133;28;19939;-59
2022/10/12 06:05:45;;;;;;;;;;;;;;;10.16;78.83;98756.81;5069756;28;19928;-59
2022/10/12 06:08:13;;;;;;;;;;;;;;;10.07;79.38;98757.75;5083629;28;20851;-58
2022/10/12 06:10:43;;;;;;;;;;;;;;;10.18;78.75;98757.38;5070455;28;19925;-59
2022/10/12 06:13:18;;;;;;;;;;;;;;;10.15;78.93;98755.22;5070642;28;20336;-58
2022/10/12 06:15:47;;;;;;;;;;;;;;;10.21;78.48;98755.97;5062480;28;19924;-59
2022/10/12 06:18:15;;;;;;;;;;;;;;;10.09;78.78;98758.28;5072913;28;19932;-59
2022/10/12 06:20:45;;;;;;;;;;;;;;;10.11;78.84;98756.06;5072423;28;20048;-59
2022/10/12 06:23:14;;;;;;;;;;;;;;;9.97;79.19;98755.94;5072860;28;19929;-59
2022/10/12 06:25:41;;;;;;;;;;;;;;;10.16;78.83;98753.31;5072232;28;20361;-59
2022/10/12 06:28:09;;;;;;;;;;;;;;;10.20;78.18;98755.16;5072950;28;20456;-59
2022/10/12 06:30:39;;;;;;;;;;;;;;;10.14;78.76;98753.59;5048757;28;20207;-59
2022/10/12 06:33:12;;;;;;;;;;;;;;;10.25;78.01;98759.75;5072798;28;19991;-59
2022/10/12 06:41:24;;;;;;;;;;;;;;;10.41;78.39;98772.06;5076650;28;19924;-58
2022/10/12 06:43:52;;;;;;;;;;;;;;;10.52;78.07;98766.53;5087756;28;19925;-59
2022/10/12 06:46:21;;;;;;;;;;;;;;;10.56;77.65;98765.66;5064662;28;19925;-58
2022/10/12 06:48:49;;;;;;;;;;;;;;;10.61;77.56;98771.03;5072932;28;20015;-59
2022/10/12 06:51:17;;;;;;;;;;;;;;;10.59;76.68;98772.41;5070355;28;19932;-58
2022/10/12 06:53:45;;;;;;;;;;;;;;;10.62;76.70;98778.09;5073136;28;19928;-58
2022/10/12 06:56:13;;;;;;;;;;;;;;;10.66;76.60;98775.59;5076984;28;19987;-59
2022/10/12 06:58:46;;;;;;;;;;;;;;;10.67;76.81;98775.31;5092878;28;20015;-58
2022/10/12 07:01:15;;;;;;;;;;;;;;;10.72;76.63;98783.41;5055170;28;19985;-59
2022/10/12 07:03:45;;;;;;;;;;;;;;;10.80;76.19;98790.09;5060635;28;19933;-58
2022/10/12 07:06:16;;;;;;;;;;;;;;;10.74;75.98;98785.81;5067700;28;19932;-59
2022/10/12 07:08:44;;;;;;;;;;;;;;;10.60;76.56;98784.88;5066252;28;19932;-59
2022/10/12 07:11:13;;;;;;;;;;;;;;;10.68;76.01;98785.06;5073006;28;19924;-60
2022/10/12 07:13:41;;;;;;;;;;;;;;;10.77;75.96;98779.81;5074476;28;19932;-58
2022/10/12 07:16:09;;;;;;;;;;;;;;;10.79;75.74;98782.22;5072826;28;19924;-59
2022/10/12 07:18:38;;;;;;;;;;;;;;;10.81;75.70;98790.88;5064615;28;19931;-58
2022/10/12 07:21:07;;;;;;;;;;;;;;;10.59;75.93;98783.28;5067179;28;19925;-59
2022/10/12 07:23:37;;;;;;;;;;;;;;;10.47;76.35;98789.94;5066226;28;19928;-59
2022/10/12 07:26:10;;;;;;;;;;;;;;;10.54;76.52;98791.47;5067760;28;20405;-59
2022/10/12 07:28:38;;;;;;;;;;;;;;;10.53;76.84;98789.88;5058952;28;20031;-58
2022/10/12 07:31:08;;;;;;;;;;;;;;;10.65;76.78;98788.38;5071284;28;19973;-59
2022/10/12 07:33:37;;;;;;;;;;;;;;;10.79;76.22;98793.91;5070865;28;19964;-59
2022/10/12 07:36:07;;;;;;;;;;;;;;;10.80;75.88;98794.72;5065720;28;19931;-58
2022/10/12 07:38:48;;;;;;;;;;;;;;;10.82;75.75;98787.91;5072708;28;19924;-59
2022/10/12 07:41:16;;;;;;;;;;;;;;;10.92;75.64;98787.78;5045981;28;19931;-59
2022/10/12 07:43:44;;;;;;;;;;;;;;;10.98;75.98;98788.50;5071166;28;19924;-59
2022/10/12 07:46:12;;;;;;;;;;;;;;;11.02;75.65;98793.06;5068285;28;19924;-59
2022/10/12 07:48:42;;;;;;;;;;;;;;;11.06;75.48;98797.91;5067352;28;19933;-59
2022/10/12 07:51:18;;;;;;;;;;;;;;;11.14;74.99;98780.97;5068765;28;19928;-59
2022/10/12 07:53:46;;;;;;;;;;;;;;;11.26;75.07;98784.03;5072881;28;19932;-59
2022/10/12 07:56:17;;;;;;;;;;;;;;;11.34;74.72;98783.34;5051117;28;19959;-59
2022/10/12 07:58:48;;;;;;;;;;;;;;;11.10;75.28;98798.94;5066973;28;20028;-59
2022/10/12 08:01:16;;;;;;;;;;;;;;;11.22;75.30;98783.81;5070709;28;20368;-59
2022/10/12 08:03:43;;;;;;;;;;;;;;;11.33;74.79;98781.75;5067975;28;20351;-59
2022/10/12 08:06:12;;;;;;;;;;;;;;;11.20;75.33;98782.50;5066743;28;19926;-59
2022/10/12 08:08:41;;;;;;;;;;;;;;;11.25;75.01;98779.69;5068895;28;19978;-58
2022/10/12 08:11:10;;;;;;;;;;;;;;;11.38;74.71;98773.50;5072253;28;19924;-59
2022/10/12 08:13:38;;;;;;;;;;;;;;;11.50;74.73;98773.06;5064785;28;19975;-59
2022/10/12 08:16:08;;;;;;;;;;;;;;;11.55;74.63;98770.25;5083908;28;19963;-59
2022/10/12 08:18:35;;;;;;;;;;;;;;;11.44;75.28;98774.25;5069945;28;19931;-59
2022/10/12 08:21:03;;;;;;;;;;;;;;;11.51;75.10;98767.34;5070843;28;19924;-59
2022/10/12 08:23:31;;;;;;;;;;;;;;;11.66;75.09;98768.16;5070751;28;19981;-59
2022/10/12 08:26:01;;;;;;;;;;;;;;;11.74;74.57;98765.59;5072980;28;19966;-58
2022/10/12 08:28:29;;;;;;;;;;;;;;;11.77;74.95;98767.72;5049477;28;19951;-59
2022/10/12 08:30:56;;;;;;;;;;;;;;;11.90;74.54;98774.34;5070925;28;19929;-59
2022/10/12 08:33:28;;;;;;;;;;;;;;;11.95;74.06;98766.09;5070527;28;21943;-58
2022/10/12 08:35:56;;;;;;;;;;;;;;;12.05;73.92;98768.63;5069081;28;20364;-59
2022/10/12 08:38:24;;;;;;;;;;;;;;;12.07;73.84;98766.41;5065318;28;19935;-58
2022/10/12 08:40:52;;;;;;;;;;;;;;;12.04;74.30;98761.56;5069011;28;19928;-58
2022/10/12 08:43:24;;;;;;;;;;;;;;;12.07;74.40;98758.22;5076259;28;20284;-59
2022/10/12 08:45:53;;;;;;;;;;;;;;;12.14;74.48;98754.31;5084787;28;19959;-59
2022/10/12 08:48:22;;;;;;;;;;;;;;;12.32;73.96;98754.22;5069653;28;20006;-59
2022/10/12 08:50:50;;;;;;;;;;;;;;;12.41;73.78;98745.34;5070128;28;20409;-59
2022/10/12 08:53:21;;;;;;;;;;;;;;;12.50;73.93;98749.78;5069271;28;20288;-58
2022/10/12 08:55:51;;;;;;;;;;;;;;;12.56;73.19;98751.28;5069371;28;19960;-59
2022/10/12 08:58:23;;;;;;;;;;;;;;;12.61;72.91;98755.03;5060493;28;20731;-59
2022/10/12 09:00:53;;;;;;;;;;;;;;;12.68;73.01;98755.44;5053498;28;20301;-59
2022/10/12 09:03:28;;;;;;;;;;;;;;;12.73;73.35;98749.88;5086065;28;19924;-59
2022/10/12 09:05:57;;;;;;;;;;;;;;;12.69;73.17;98749.69;5050696;28;19935;-59
2022/10/12 09:08:28;;;;;;;;;;;;;;;12.67;73.11;98753.81;5070575;28;19990;-59
2022/10/12 09:13:52;;;;;;;;;;;;;;;12.92;72.16;98752.47;5069151;28;19924;-59
2022/10/12 09:16:21;;;;;;;;;;;;;;;12.99;72.21;98750.13;5052051;28;19959;-58
2022/10/12 09:18:49;;;;;;;;;;;;;;;13.08;72.54;98749.09;5070704;28;20365;-59
2022/10/12 09:21:18;;;;;;;;;;;;;;;13.14;72.66;98751.72;5068518;28;19932;-58
2022/10/12 09:23:46;;;;;;;;;;;;;;;13.21;72.27;98757.56;5068500;28;19933;-59
2022/10/12 09:26:15;;;;;;;;;;;;;;;13.32;72.23;98759.00;5070381;28;19963;-59
2022/10/12 09:28:49;;;;;;;;;;;;;;;13.35;71.87;98758.34;5070050;28;19924;-59
2022/10/12 09:31:28;;;;;;;;;;;;;;;13.42;71.79;98760.66;5069112;28;20417;-58
2022/10/12 09:33:57;;;;;;;;;;;;;;;13.46;71.42;98754.25;5069594;28;19929;-59
2022/10/12 09:36:26;;;;;;;;;;;;;;;13.49;71.29;98761.03;5069325;28;19931;-59
2022/10/12 09:38:54;;;;;;;;;;;;;;;13.59;71.03;98760.81;5069710;28;20361;-59
2022/10/12 09:41:23;;;;;;;;;;;;;;;13.63;71.24;98759.03;5069445;28;19940;-59
2022/10/12 09:43:51;;;;;;;;;;;;;;;13.66;70.98;98763.09;5069469;28;19932;-59
2022/10/12 09:46:44;;;;;;;;;;;;;;;13.57;71.01;98760.28;5067140;28;19970;-59
2022/10/12 09:49:17;;;;;;;;;;;;;;;13.59;71.21;98756.16;5071431;28;19981;-60
2022/10/12 09:51:45;;;;;;;;;;;;;;;13.76;70.95;98760.13;5051792;28;20421;-59
2022/10/12 09:54:17;;;;;;;;;;;;;;;13.83;70.98;98746.81;5071416;28;19928;-60
2022/10/12 09:56:48;;;;;;;;;;;;;;;13.87;70.22;98753.28;5075483;28;19924;-59
2022/10/12 09:59:25;;;;;;;;;;;;;;;13.95;70.76;98749.78;5055847;28;19951;-60
2022/10/12 10:01:57;;;;;;;;;;;;;;;14.05;69.88;98754.16;5072333;28;20324;-60
2022/10/12 10:04:26;;;;;;;;;;;;;;;14.05;70.19;98748.69;5070428;28;20373;-59
2022/10/12 10:06:54;;;;;;;;;;;;;;;14.14;70.87;98749.56;5055225;28;19924;-60
2022/10/12 10:09:29;;;;;;;;;;;;;;;14.22;70.16;98739.78;5072863;28;20405;-59
2022/10/12 10:11:57;;;;;;;;;;;;;;;14.27;69.26;98750.56;5074025;28;20420;-59
2022/10/12 10:14:25;;;;;;;;;;;;;;;14.31;69.21;98748.81;5070793;28;19929;-59
2022/10/12 10:16:53;;;;;;;;;;;;;;;14.37;69.14;98750.28;5073423;28;19928;-60
2022/10/12 10:19:23;;;;;;;;;;;;;;;14.39;69.12;98743.41;5071447;28;19924;-59
2022/10/12 10:21:55;;;;;;;;;;;;;;;14.38;69.03;98749.16;5073769;28;20020;-60
2022/10/12 10:24:25;;;;;;;;;;;;;;;14.51;68.82;98752.97;5070000;28;19936;-59
2022/10/12 10:26:54;;;;;;;;;;;;;;;14.55;68.46;98756.69;5056522;28;19924;-60
2022/10/12 10:29:33;;;;;;;;;;;;;;;14.54;69.15;98753.16;5072479;28;19947;-59
2022/10/12 10:32:10;;;;;;;;;;;;;;;14.59;68.34;98752.16;5072407;28;19925;-60
2022/10/12 10:34:38;;;;;;;;;;;;;;;14.59;68.16;98752.97;5064694;28;20034;-59
2022/10/12 10:37:12;;;;;;;;;;;;;;;14.58;68.26;98751.38;5050612;28;19924;-60
2022/10/12 10:39:45;;;;;;;;;;;;;;;14.64;68.15;98746.56;5075485;28;19993;-60
2022/10/12 10:42:17;;;;;;;;;;;;;;;14.70;68.45;98748.06;5066352;28;19956;-60
2022/10/12 10:44:49;;;;;;;;;;;;;;;14.65;68.59;98748.19;5071866;28;19955;-59
2022/10/12 10:47:17;;;;;;;;;;;;;;;14.74;68.98;98756.41;5073005;28;19924;-59
2022/10/12 10:49:46;;;;;;;;;;;;;;;14.78;69.13;98743.72;5052108;28;19933;-60
2022/10/12 10:52:22;;;;;;;;;;;;;;;14.79;68.56;98746.13;5073312;28;19924;-60
2022/10/12 10:54:50;;;;;;;;;;;;;;;14.77;67.71;98751.13;5081310;28;19929;-60
2022/10/12 10:57:43;;;;;;;;;;;;;;;14.72;67.94;98754.00;5072783;28;20002;-59
2022/10/12 11:00:11;;;;;;;;;;;;;;;14.71;67.90;98743.38;5041582;28;19986;-60
2022/10/12 11:03:01;;;;;;;;;;;;;;;14.79;67.51;98739.84;5042102;28;19932;-59
2022/10/12 11:05:29;;;;;;;;;;;;;;;14.99;67.43;98743.91;5067754;28;19929;-59
2022/10/12 11:07:59;;;;;;;;;;;;;;;15.10;67.42;98739.75;5065352;28;20164;-60
2022/10/12 11:10:28;;;;;;;;;;;;;;;15.07;67.19;98734.88;5055209;28;19929;-60
2022/10/12 11:12:57;;;;;;;;;;;;;;;15.04;67.45;98736.34;5073125;28;19924;-59
2022/10/12 11:15:26;;;;;;;;;;;;;;;15.07;67.44;98735.69;5072177;28;19925;-59
2022/10/12 11:17:54;;;;;;;;;;;;;;;15.15;67.58;98725.91;5072949;28;19924;-60
2022/10/12 11:20:30;;;;;;;;;;;;;;;15.23;66.89;98735.22;5072583;28;19924;-59
2022/10/12 11:23:02;;;;;;;;;;;;;;;15.25;66.86;98731.06;5073157;28;19924;-60
2022/10/12 11:25:31;;;;;;;;;;;;;;;15.23;66.66;98724.28;5049574;28;19947;-60
2022/10/12 11:27:59;;;;;;;;;;;;;;;15.21;66.53;98713.66;5073102;28;19974;-60
2022/10/12 11:30:52;;;;;;;;;;;;;;;15.25;65.86;98713.84;5072937;28;19928;-59
2022/10/12 11:33:21;;;;;;;;;;;;;;;15.36;66.10;98715.91;5068752;28;20592;-59
2022/10/12 11:35:50;;;;;;;;;;;;;;;15.42;65.59;98708.34;5072102;28;19940;-59
2022/10/12 11:38:27;;;;;;;;;;;;;;;15.53;65.64;98708.81;5067005;28;19924;-63
2022/10/12 11:40:55;;;;;;;;;;;;;;;15.68;65.48;98705.59;5068234;28;20399;-60
2022/10/12 11:43:44;;;;;;;;;;;;;;;15.75;64.80;98705.09;5050231;28;19954;-59
2022/10/12 11:46:13;;;;;;;;;;;;;;;15.76;64.44;98699.28;5071845;28;19938;-60
2022/10/12 11:48:41;;;;;;;;;;;;;;;15.70;65.47;98706.88;5070312;28;19924;-59
2022/10/12 11:51:10;;;;;;;;;;;;;;;15.78;64.98;98694.28;5068423;28;19933;-59
2022/10/12 11:53:41;;;;;;;;;;;;;;;15.91;65.15;98695.22;5069594;28;19928;-59
2022/10/12 11:56:35;;;;;;;;;;;;;;;15.99;64.63;98691.66;5069272;28;20272;-60
2022/10/12 11:59:04;;;;;;;;;;;;;;;16.06;63.94;98694.69;5069686;28;20430;-60
2022/10/12 12:01:35;;;;;;;;;;;;;;;16.02;63.21;98685.50;5053471;28;19931;-60
2022/10/12 12:04:07;;;;;;;;;;;;;;;15.91;63.17;98678.78;5070119;28;19924;-59
2022/10/12 12:06:56;;;;;;;;;;;;;;;15.73;64.03;98679.97;5073306;28;20022;-59
2022/10/12 12:09:40;;;;;;;;;;;;;;;15.58;64.70;98684.00;5071860;28;20373;-59
2022/10/12 12:12:15;;;;;;;;;;;;;;;15.47;65.59;98678.06;5071270;28;19929;-59
2022/10/12 12:14:48;;;;;;;;;;;;;;;15.47;65.55;98675.31;5069928;28;20342;-59
2022/10/12 12:17:21;;;;;;;;;;;;;;;15.50;65.45;98666.47;5069554;28;20365;-59
2022/10/12 12:19:52;;;;;;;;;;;;;;;15.62;65.53;98663.84;5072004;28;19960;-60
2022/10/12 12:22:22;;;;;;;;;;;;;;;15.72;65.57;98660.00;5068320;28;19925;-59
2022/10/12 12:25:16;;;;;;;;;;;;;;;15.80;65.53;98661.09;5072048;28;19985;-61
2022/10/12 12:27:45;;;;;;;;;;;;;;;15.79;64.40;98667.69;5084023;28;19924;-59
2022/10/12 12:30:26;;;;;;;;;;;;;;;15.87;64.68;98658.63;5071282;28;19952;-57
2022/10/12 12:33:25;;;;;;;;;;;;;;;15.88;64.03;98668.50;5064986;28;19928;-57
2022/10/12 12:35:54;;;;;;;;;;;;;;;15.95;63.95;98666.84;5071652;28;19931;-58
2022/10/12 12:38:25;;;;;;;;;;;;;;;15.91;63.45;98662.34;5083076;28;20023;-58
2022/10/12 12:40:59;;;;;;;;;;;;;;;15.85;63.72;98660.91;5071379;28;19928;-58
2022/10/12 12:43:38;;;;;;;;;;;;;;;15.77;64.54;98661.75;5067084;28;19928;-58
2022/10/12 12:46:07;;;;;;;;;;;;;;;15.69;64.17;98663.38;5069817;28;19947;-58
2022/10/12 12:48:53;;;;;;;;;;;;;;;15.62;64.36;98655.63;5071167;28;19928;-58
2022/10/12 12:51:22;;;;;;;;;;;;;;;15.55;64.56;98649.81;5079120;28;19928;-58
2022/10/12 12:53:51;;;;;;;;;;;;;;;15.59;64.53;98650.78;5048264;28;19928;-59
2022/10/12 12:56:52;;;;;;;;;;;;;;;15.57;64.84;98650.31;5068856;28;19928;-58
2022/10/12 12:59:39;;;;;;;;;;;;;;;15.60;65.26;98648.84;5071029;28;19928;-58
2022/10/12 13:02:16;;;;;;;;;;;;;;;15.59;65.04;98652.72;5071087;28;19970;-58
2022/10/12 13:04:49;;;;;;;;;;;;;;;15.60;65.08;98660.63;5069369;28;19955;-58
2022/10/12 13:07:23;;;;;;;;;;;;;;;15.65;65.03;98649.50;5073700;28;19931;-57
2022/10/12 13:10:08;;;;;;;;;;;;;;;15.76;64.57;98646.44;5066700;28;19994;-58
2022/10/12 13:12:45;;;;;;;;;;;;;;;15.85;63.79;98639.00;5066468;28;19925;-58
2022/10/12 13:15:17;;;;;;;;;;;;;;;15.89;64.10;98639.94;5070029;28;20446;-58
2022/10/12 13:17:56;;;;;;;;;;;;;;;15.90;64.16;98636.88;5052166;28;20067;-58
2022/10/12 13:20:25;;;;;;;;;;;;;;;15.97;64.25;98628.94;5070520;28;19985;-58
2022/10/12 13:22:56;;;;;;;;;;;;;;;16.00;64.65;98630.22;5048956;28;19924;-57
2022/10/12 13:25:32;;;;;;;;;;;;;;;16.05;64.18;98627.31;5085319;28;19924;-58